createdAt,value
2022-10-26T00:01:33.789Z,143.25
2022-10-26T00:04:03.145Z,147.00
2022-10-26T00:06:32.043Z,153.90
2022-10-26T00:09:01.196Z,149.90
2022-10-26T00:11:30.252Z,159.75
2022-10-26T00:13:59.434Z,167.32
2022-10-26T00:16:29.650Z,162.68
2022-10-26T00:18:59.020Z,159.80
2022-10-26T00:21:28.094Z,168.85
2022-10-26T00:23:57.947Z,177.40
2022-10-26T00:26:27.051Z,174.68
2022-10-26T00:28:58.471Z,172.13
2022-10-26T00:31:27.664Z,172.00
2022-10-26T00:33:57.800Z,172.80
2022-10-26T00:36:27.830Z,172.93
2022-10-26T00:38:58.418Z,179.55
2022-10-26T00:41:31.971Z,177.73
2022-10-26T00:44:01.765Z,177.73
2022-10-26T00:46:37.547Z,176.48
2022-10-26T00:49:14.659Z,172.07
2022-10-26T00:51:48.137Z,174.77
2022-10-26T00:54:20.030Z,176.77
2022-10-26T00:56:52.844Z,183.10
2022-10-26T00:59:24.247Z,173.90
2022-10-26T01:01:57.089Z,171.38
2022-10-26T01:04:31.202Z,168.88
2022-10-26T01:07:08.219Z,174.43
2022-10-26T01:09:40.640Z,171.30
2022-10-26T01:12:12.303Z,172.35
2022-10-26T01:14:43.820Z,169.88
2022-10-26T01:17:32.108Z,166.10
2022-10-26T01:20:06.668Z,165.93
2022-10-26T01:22:43.029Z,157.27
2022-10-26T01:25:29.104Z,161.77
2022-10-26T01:27:59.824Z,162.40
2022-10-26T01:30:42.238Z,169.88
2022-10-26T01:33:49.913Z,171.30
2022-10-26T01:36:54.704Z,169.57
2022-10-26T01:39:40.591Z,184.05
2022-10-26T01:42:12.981Z,178.40
2022-10-26T01:47:16.934Z,153.35
2022-10-26T01:49:54.423Z,164.77
2022-10-26T01:52:24.320Z,161.25
2022-10-26T01:54:53.400Z,159.02
2022-10-26T01:57:23.380Z,151.13
2022-10-26T01:59:55.899Z,142.88
2022-10-26T02:03:00.031Z,142.82
2022-10-26T02:05:46.019Z,146.80
2022-10-26T02:08:42.530Z,146.70
2022-10-26T02:11:14.578Z,146.25
2022-10-26T02:13:54.071Z,142.05
2022-10-26T02:16:46.697Z,145.23
2022-10-26T02:19:42.174Z,144.15
2022-10-26T02:22:48.965Z,145.18
2022-10-26T02:25:27.202Z,144.25
2022-10-26T02:28:08.233Z,139.65
2022-10-26T02:30:39.105Z,143.13
2022-10-26T02:33:11.997Z,142.60
2022-10-26T02:38:13.047Z,139.20
2022-10-26T02:40:43.374Z,146.20
2022-10-26T02:43:16.838Z,140.95
2022-10-26T02:45:50.576Z,144.43
2022-10-26T02:48:20.772Z,140.13
2022-10-26T02:51:01.567Z,146.00
2022-10-26T02:53:46.160Z,151.90
2022-10-26T02:56:44.280Z,144.15
2022-10-26T02:59:16.648Z,158.60
2022-10-26T03:01:46.909Z,172.05
2022-10-26T03:04:16.467Z,180.45
2022-10-26T03:06:54.710Z,210.93
2022-10-26T03:09:25.551Z,204.52
2022-10-26T03:11:55.168Z,199.82
2022-10-26T03:14:24.408Z,199.20
2022-10-26T03:16:53.891Z,211.25
2022-10-26T03:19:22.773Z,201.13
2022-10-26T03:21:52.162Z,214.40
2022-10-26T03:24:21.198Z,221.98
2022-10-26T03:26:50.943Z,231.43
2022-10-26T03:29:20.097Z,253.52
2022-10-26T03:31:49.988Z,254.02
2022-10-26T03:34:19.841Z,252.52
2022-10-26T03:36:49.741Z,256.85
2022-10-26T03:39:18.880Z,256.33
2022-10-26T03:41:49.295Z,261.10
2022-10-26T03:44:18.518Z,255.25
2022-10-26T03:46:47.430Z,259.90
2022-10-26T03:49:16.869Z,258.73
2022-10-26T03:51:46.137Z,261.23
2022-10-26T03:56:45.114Z,263.23
2022-10-26T03:59:14.383Z,269.73
2022-10-26T04:01:43.852Z,273.67
2022-10-26T04:04:13.530Z,267.30
2022-10-26T04:06:43.147Z,266.40
2022-10-26T04:09:12.243Z,265.70
2022-10-26T04:11:41.526Z,255.55
2022-10-26T04:14:10.727Z,255.57
2022-10-26T04:19:44.385Z,241.93
2022-10-26T04:22:15.211Z,239.52
2022-10-26T04:24:45.190Z,182.93
2022-10-26T04:27:14.385Z,159.32
2022-10-26T04:29:43.869Z,167.93
2022-10-26T04:32:13.110Z,174.82
2022-10-26T04:34:42.178Z,150.13
2022-10-26T04:37:11.705Z,150.70
2022-10-26T04:39:40.887Z,141.77
2022-10-26T04:42:10.052Z,143.55
2022-10-26T04:44:39.079Z,124.88
2022-10-26T04:47:08.867Z,115.85
2022-10-26T04:49:38.236Z,114.25
2022-10-26T04:52:07.965Z,110.88
2022-10-26T04:54:37.240Z,114.75
2022-10-26T04:57:06.758Z,118.15
2022-10-26T04:59:35.858Z,111.32
2022-10-26T05:02:05.199Z,112.55
2022-10-26T05:04:34.476Z,110.25
2022-10-26T05:07:04.280Z,109.45
2022-10-26T05:09:33.416Z,78.40
2022-10-26T05:12:02.813Z,71.78
2022-10-26T05:14:31.985Z,67.65
2022-10-26T05:17:01.246Z,65.57
2022-10-26T05:19:30.463Z,85.10
2022-10-26T05:21:59.402Z,77.95
2022-10-26T05:24:28.798Z,90.68
2022-10-26T05:26:57.838Z,82.35
2022-10-26T05:29:26.948Z,78.57
2022-10-26T05:31:56.275Z,60.00
2022-10-26T05:34:25.557Z,53.08
2022-10-26T05:36:55.721Z,61.38
2022-10-26T05:39:24.912Z,69.57
2022-10-26T05:41:54.180Z,71.57
2022-10-26T05:44:23.968Z,68.07
2022-10-26T05:46:53.145Z,62.10
2022-10-26T05:49:22.229Z,58.75
2022-10-26T05:51:51.545Z,54.97
2022-10-26T05:54:23.886Z,64.22
2022-10-26T05:59:22.076Z,48.83
2022-10-26T06:01:57.024Z,52.08
2022-10-26T06:04:44.789Z,56.50
2022-10-26T06:07:17.395Z,53.45
2022-10-26T06:09:49.353Z,52.75
2022-10-26T06:12:19.847Z,51.08
2022-10-26T06:14:49.781Z,49.05
2022-10-26T06:17:47.843Z,49.75
2022-10-26T06:20:43.470Z,49.90
2022-10-26T06:23:44.644Z,48.28
2022-10-26T06:26:58.248Z,52.20
2022-10-26T06:29:57.875Z,51.47
2022-10-26T06:32:27.569Z,52.60
2022-10-26T06:35:21.743Z,54.90
2022-10-26T06:37:53.095Z,55.60
2022-10-26T06:40:24.697Z,54.42
2022-10-26T06:42:54.620Z,54.58
2022-10-26T06:45:24.320Z,53.40
2022-10-26T06:48:03.807Z,52.28
2022-10-26T06:50:51.838Z,54.38
2022-10-26T06:53:28.289Z,54.22
2022-10-26T06:56:00.820Z,56.35
2022-10-26T06:58:36.266Z,58.22
2022-10-26T07:01:05.959Z,54.90
2022-10-26T07:03:35.110Z,54.78
2022-10-26T07:06:04.159Z,55.55
2022-10-26T07:08:43.429Z,52.72
2022-10-26T07:11:13.877Z,47.22
2022-10-26T07:13:43.020Z,47.17
2022-10-26T07:16:12.018Z,49.63
2022-10-26T07:18:41.710Z,44.80
2022-10-26T07:21:11.555Z,50.35
2022-10-26T07:23:41.041Z,50.22
2022-10-26T07:26:10.737Z,48.67
2022-10-26T07:28:43.353Z,50.28
2022-10-26T07:31:13.079Z,45.35
2022-10-26T07:33:43.901Z,37.55
2022-10-26T07:36:13.876Z,39.65
2022-10-26T07:38:43.446Z,34.25
2022-10-26T07:41:12.520Z,32.45
2022-10-26T07:43:41.678Z,34.08
2022-10-26T07:46:10.965Z,38.60
2022-10-26T07:48:40.789Z,37.90
2022-10-26T07:51:10.658Z,36.08
2022-10-26T07:53:39.700Z,32.50
2022-10-26T07:56:09.718Z,32.55
2022-10-26T07:58:39.240Z,34.30
2022-10-26T08:01:14.126Z,33.78
2022-10-26T08:03:44.395Z,29.55
2022-10-26T08:06:14.632Z,29.48
2022-10-26T08:08:46.638Z,30.08
2022-10-26T08:11:17.750Z,32.08
2022-10-26T08:13:47.446Z,32.83
2022-10-26T08:16:16.946Z,31.63
2022-10-26T08:18:45.852Z,33.88
2022-10-26T08:21:21.655Z,32.83
2022-10-26T08:23:55.720Z,30.20
2022-10-26T08:26:25.556Z,41.75
2022-10-26T08:28:55.136Z,33.92
2022-10-26T08:31:24.845Z,30.83
2022-10-26T08:33:54.161Z,32.55
2022-10-26T08:36:28.699Z,33.45
2022-10-26T08:41:54.448Z,28.80
2022-10-26T08:44:30.525Z,29.25
2022-10-26T08:47:23.794Z,30.40
2022-10-26T08:50:04.120Z,37.08
2022-10-26T08:53:04.686Z,42.00
2022-10-26T08:55:52.914Z,45.80
2022-10-26T08:58:27.547Z,41.95
2022-10-26T09:00:57.500Z,38.10
2022-10-26T09:03:26.762Z,38.72
2022-10-26T09:06:43.176Z,37.15
2022-10-26T09:09:22.543Z,33.60
2022-10-26T09:12:18.200Z,36.80
2022-10-26T09:14:47.340Z,35.92
2022-10-26T09:17:19.272Z,35.20
2022-10-26T09:22:45.283Z,34.70
2022-10-26T09:25:21.030Z,35.45
2022-10-26T09:28:19.639Z,32.20
2022-10-26T09:30:49.963Z,36.13
2022-10-26T09:33:25.870Z,33.08
2022-10-26T09:36:02.634Z,32.08
2022-10-26T09:38:40.613Z,26.90
2022-10-26T09:41:42.486Z,25.58
2022-10-26T09:44:46.799Z,28.73
2022-10-26T09:47:34.726Z,28.08
2022-10-26T09:50:32.867Z,29.08
2022-10-26T09:53:02.361Z,32.58
2022-10-26T09:55:34.337Z,36.80
2022-10-26T09:58:08.591Z,30.02
2022-10-26T10:00:40.185Z,29.92
2022-10-26T10:03:23.275Z,32.40
2022-10-26T10:05:53.133Z,31.27
2022-10-26T10:08:28.438Z,34.08
2022-10-26T10:11:05.545Z,32.38
2022-10-26T10:13:38.579Z,32.75
2022-10-26T10:16:22.678Z,35.90
2022-10-26T10:18:58.189Z,39.08
2022-10-26T10:21:44.750Z,37.17
2022-10-26T10:24:29.484Z,42.72
2022-10-26T10:27:17.640Z,37.10
2022-10-26T10:29:56.429Z,38.88
2022-10-26T10:32:35.595Z,34.40
2022-10-26T10:35:31.258Z,29.33
2022-10-26T10:40:33.042Z,28.70
2022-10-26T10:45:37.514Z,26.10
2022-10-26T10:48:22.300Z,24.02
2022-10-26T10:51:22.520Z,28.10
2022-10-26T10:53:54.602Z,27.08
2022-10-26T10:56:34.355Z,27.27
2022-10-26T10:59:21.262Z,30.02
2022-10-26T11:02:03.213Z,26.90
2022-10-26T11:04:54.827Z,26.50
2022-10-26T11:07:27.460Z,28.27
2022-10-26T11:09:58.897Z,27.50
2022-10-26T11:15:14.600Z,35.33
2022-10-26T11:18:12.061Z,34.70
2022-10-26T11:20:52.699Z,33.67
2022-10-26T11:23:33.639Z,35.60
2022-10-26T11:26:17.151Z,38.03
2022-10-26T11:29:04.760Z,33.58
2022-10-26T11:31:44.240Z,32.33
2022-10-26T11:34:25.518Z,31.85
2022-10-26T11:37:05.427Z,34.58
2022-10-26T11:40:28.259Z,34.55
2022-10-26T11:43:11.896Z,35.00
2022-10-26T11:45:47.406Z,34.05
2022-10-26T11:48:29.898Z,32.65
2022-10-26T11:51:01.128Z,46.60
2022-10-26T11:53:42.616Z,36.65
2022-10-26T11:56:25.354Z,42.72
2022-10-26T11:58:55.735Z,34.78
2022-10-26T12:01:25.242Z,34.38
2022-10-26T12:03:59.148Z,36.53
2022-10-26T12:06:32.708Z,36.92
2022-10-26T12:09:10.538Z,34.88
2022-10-26T12:11:49.446Z,36.88
2022-10-26T12:14:51.713Z,35.83
2022-10-26T12:17:33.267Z,42.13
2022-10-26T12:20:47.126Z,45.80
2022-10-26T12:23:23.391Z,44.45
2022-10-26T12:26:41.804Z,50.22
2022-10-26T12:29:10.837Z,52.47
2022-10-26T12:31:39.594Z,52.33
2022-10-26T12:34:24.427Z,52.42
2022-10-26T12:36:59.418Z,55.92
2022-10-26T12:39:36.450Z,56.53
2022-10-26T12:42:27.386Z,60.55
2022-10-26T12:47:31.356Z,51.28
2022-10-26T12:50:21.206Z,52.90
2022-10-26T12:52:53.955Z,62.78
2022-10-26T12:55:23.717Z,61.45
2022-10-26T12:58:10.582Z,62.65
2022-10-26T13:00:49.746Z,56.50
2022-10-26T13:03:44.908Z,61.95
2022-10-26T13:06:43.906Z,57.45
2022-10-26T13:09:27.217Z,60.40
2022-10-26T13:11:58.614Z,58.83
2022-10-26T13:14:43.460Z,59.30
2022-10-26T13:17:28.992Z,57.97
2022-10-26T13:20:04.224Z,58.05
2022-10-26T13:22:34.227Z,56.53
2022-10-26T13:25:06.527Z,55.47
2022-10-26T13:27:35.899Z,54.42
2022-10-26T13:30:04.787Z,53.83
2022-10-26T13:32:50.294Z,52.42
2022-10-26T13:35:23.597Z,51.63
2022-10-26T13:37:55.655Z,55.80
2022-10-26T13:40:30.363Z,57.78
2022-10-26T13:43:06.763Z,58.40
2022-10-26T13:45:42.520Z,58.70
2022-10-26T13:48:18.565Z,62.78
2022-10-26T13:50:59.380Z,62.05
2022-10-26T13:54:23.830Z,61.15
2022-10-26T13:57:17.392Z,57.72
2022-10-26T13:59:47.709Z,56.47
2022-10-26T14:02:23.675Z,56.45
2022-10-26T14:05:03.089Z,58.50
2022-10-26T14:07:57.452Z,62.42
2022-10-26T14:10:34.367Z,58.20
2022-10-26T14:13:09.457Z,58.50
2022-10-26T14:15:38.806Z,59.00
2022-10-26T14:18:07.889Z,63.45
2022-10-26T14:20:37.202Z,61.90
2022-10-26T14:23:06.394Z,65.18
2022-10-26T14:25:48.055Z,60.88
2022-10-26T14:28:33.010Z,58.65
2022-10-26T14:31:22.922Z,63.13
2022-10-26T14:33:55.552Z,61.63
2022-10-26T14:36:51.423Z,60.63
2022-10-26T14:39:30.302Z,60.35
2022-10-26T14:42:01.062Z,64.68
2022-10-26T14:44:31.666Z,61.40
2022-10-26T14:47:00.728Z,59.90
2022-10-26T14:49:30.313Z,59.55
2022-10-26T14:52:07.442Z,61.30
2022-10-26T14:54:36.540Z,67.63
2022-10-26T14:57:09.920Z,67.40
2022-10-26T14:59:38.967Z,73.50
2022-10-26T15:02:23.904Z,78.50
2022-10-26T15:05:04.798Z,80.03
2022-10-26T15:07:42.936Z,82.53
2022-10-26T15:10:50.514Z,83.07
2022-10-26T15:13:26.242Z,82.20
2022-10-26T15:15:58.757Z,90.47
2022-10-26T15:21:04.285Z,92.57
2022-10-26T15:23:33.830Z,96.78
2022-10-26T15:26:04.885Z,97.93
2022-10-26T15:28:46.431Z,98.28
2022-10-26T15:31:16.138Z,90.13
2022-10-26T15:33:55.075Z,91.03
2022-10-26T15:36:29.257Z,86.43
2022-10-26T15:39:00.909Z,81.72
2022-10-26T15:41:31.620Z,83.93
2022-10-26T15:44:07.104Z,83.22
2022-10-26T15:46:42.443Z,84.03
2022-10-26T15:49:21.175Z,78.45
2022-10-26T15:51:50.905Z,78.80
2022-10-26T15:54:20.327Z,74.93
2022-10-26T15:56:49.971Z,69.88
2022-10-26T15:59:21.541Z,73.88
2022-10-26T16:01:53.680Z,74.10
2022-10-26T16:04:24.373Z,74.07
2022-10-26T16:06:58.029Z,71.38
2022-10-26T16:09:28.342Z,73.28
2022-10-26T16:11:57.861Z,75.15
2022-10-26T16:14:30.018Z,73.57
2022-10-26T16:17:02.647Z,74.03
2022-10-26T16:19:31.935Z,72.55
2022-10-26T16:22:01.942Z,74.70
2022-10-26T16:24:34.821Z,77.63
2022-10-26T16:27:03.801Z,77.95
2022-10-26T16:29:33.756Z,76.22
2022-10-26T16:32:06.962Z,76.28
2022-10-26T16:34:36.289Z,72.97
2022-10-26T16:37:05.625Z,78.05
2022-10-26T16:39:34.729Z,71.97
2022-10-26T16:42:03.765Z,72.35
2022-10-26T16:44:33.209Z,73.18
2022-10-26T16:47:02.393Z,73.90
2022-10-26T16:49:31.866Z,73.53
2022-10-26T16:52:01.174Z,77.93
2022-10-26T16:54:32.096Z,79.32
2022-10-26T16:57:01.940Z,77.13
2022-10-26T16:59:31.282Z,77.03
2022-10-26T17:02:00.857Z,75.25
2022-10-26T17:04:30.352Z,74.38
2022-10-26T17:06:59.504Z,76.18
2022-10-26T17:09:29.671Z,77.68
2022-10-26T17:12:01.909Z,72.68
2022-10-26T17:14:31.882Z,73.97
2022-10-26T17:17:01.013Z,74.32
2022-10-26T17:19:30.058Z,73.13
2022-10-26T17:21:59.373Z,75.63
2022-10-26T17:24:28.360Z,76.35
2022-10-26T17:26:57.636Z,78.25
2022-10-26T17:29:26.857Z,77.90
2022-10-26T17:31:55.879Z,77.57
2022-10-26T17:34:25.151Z,77.57
2022-10-26T17:36:54.031Z,77.90
2022-10-26T17:39:23.534Z,77.47
2022-10-26T17:41:52.812Z,78.72
2022-10-26T17:44:49.350Z,81.25
2022-10-26T17:47:18.460Z,80.22
2022-10-26T17:49:47.611Z,79.68
2022-10-26T17:52:16.663Z,78.15
2022-10-26T17:54:45.429Z,81.80
2022-10-26T17:57:14.603Z,79.45
2022-10-26T17:59:43.664Z,80.10
2022-10-26T18:02:13.737Z,79.55
2022-10-26T18:04:42.866Z,83.45
2022-10-26T18:07:11.796Z,83.00
2022-10-26T18:09:41.177Z,85.13
2022-10-26T18:12:11.805Z,81.40
2022-10-26T18:14:40.870Z,81.75
2022-10-26T18:17:10.414Z,85.72
2022-10-26T18:19:39.223Z,82.75
2022-10-26T18:22:08.505Z,88.95
2022-10-26T18:24:37.665Z,83.97
2022-10-26T18:27:06.805Z,89.55
2022-10-26T18:29:38.861Z,89.95
2022-10-26T18:32:08.830Z,89.65
2022-10-26T18:34:38.278Z,90.60
2022-10-26T18:37:07.397Z,90.45
2022-10-26T18:39:36.456Z,91.80
2022-10-26T18:42:05.919Z,87.95
2022-10-26T18:44:35.039Z,83.93
2022-10-26T18:47:03.896Z,87.00
2022-10-26T18:49:33.835Z,86.95
2022-10-26T18:52:03.045Z,90.13
2022-10-26T18:54:31.921Z,89.85
2022-10-26T18:57:02.315Z,95.07
2022-10-26T18:59:31.771Z,92.95
2022-10-26T19:02:01.118Z,88.43
2022-10-26T19:04:30.844Z,90.30
2022-10-26T19:07:00.579Z,92.28
2022-10-26T19:09:29.440Z,93.55
2022-10-26T19:12:01.510Z,91.20
2022-10-26T19:14:32.945Z,100.43
2022-10-26T19:17:01.994Z,97.60
2022-10-26T19:19:31.314Z,105.70
2022-10-26T19:22:01.307Z,108.03
2022-10-26T19:24:31.043Z,106.57
2022-10-26T19:27:00.041Z,109.15
2022-10-26T19:29:29.161Z,106.38
2022-10-26T19:31:58.532Z,112.55
2022-10-26T19:34:27.773Z,116.15
2022-10-26T19:36:57.036Z,113.03
2022-10-26T19:39:27.334Z,116.90
2022-10-26T19:41:56.660Z,113.13
2022-10-26T19:44:25.802Z,112.65
2022-10-26T19:46:55.053Z,108.28
2022-10-26T19:49:24.394Z,102.68
2022-10-26T19:51:54.692Z,98.20
2022-10-26T19:54:24.254Z,98.75
2022-10-26T19:56:53.149Z,100.05
2022-10-26T19:59:22.429Z,97.43
2022-10-26T20:01:51.380Z,95.80
2022-10-26T20:04:20.711Z,91.60
2022-10-26T20:06:49.967Z,92.97
2022-10-26T20:09:19.983Z,90.50
2022-10-26T20:11:49.834Z,89.35
2022-10-26T20:14:19.297Z,82.50
2022-10-26T20:16:48.766Z,82.30
2022-10-26T20:19:17.850Z,84.72
2022-10-26T20:21:47.770Z,86.78
2022-10-26T20:24:16.861Z,84.25
2022-10-26T20:26:46.244Z,85.95
2022-10-26T20:29:15.234Z,84.75
2022-10-26T20:31:44.203Z,82.65
2022-10-26T20:34:13.316Z,83.00
2022-10-26T20:36:42.535Z,79.40
2022-10-26T20:39:12.054Z,78.88
2022-10-26T20:41:44.881Z,73.13
2022-10-26T20:44:28.675Z,76.18
2022-10-26T20:46:58.342Z,68.32
2022-10-26T20:49:27.439Z,67.13
2022-10-26T20:52:21.771Z,67.13
2022-10-26T20:55:00.874Z,67.32
2022-10-26T20:57:36.205Z,68.93
2022-10-26T21:00:09.946Z,64.50
2022-10-26T21:02:39.324Z,63.88
2022-10-26T21:05:08.475Z,59.72
2022-10-26T21:07:37.896Z,63.05
2022-10-26T21:10:07.297Z,61.10
2022-10-26T21:12:36.382Z,65.97
2022-10-26T21:15:05.834Z,60.05
2022-10-26T21:17:35.471Z,62.90
2022-10-26T21:20:05.008Z,61.55
2022-10-26T21:22:34.236Z,61.97
2022-10-26T21:25:03.138Z,62.67
2022-10-26T21:27:32.424Z,64.90
2022-10-26T21:30:02.025Z,59.90
2022-10-26T21:32:31.544Z,60.38
2022-10-26T21:35:00.642Z,62.50
2022-10-26T21:37:29.907Z,62.30
2022-10-26T21:39:58.761Z,60.90
2022-10-26T21:42:27.918Z,62.75
2022-10-26T21:44:56.872Z,62.53
2022-10-26T21:47:26.188Z,61.95
2022-10-26T21:49:55.468Z,63.25
2022-10-26T21:52:24.366Z,61.75
2022-10-26T21:54:53.718Z,60.88
2022-10-26T21:57:22.707Z,62.15
2022-10-26T21:59:51.678Z,60.95
2022-10-26T22:02:20.898Z,59.88
2022-10-26T22:04:50.404Z,57.35
2022-10-26T22:07:21.044Z,58.72
2022-10-26T22:10:07.729Z,57.33
2022-10-26T22:12:39.557Z,58.78
2022-10-26T22:15:09.131Z,59.08
2022-10-26T22:17:42.413Z,60.08
2022-10-26T22:20:13.115Z,58.88
2022-10-26T22:22:42.349Z,60.55
2022-10-26T22:25:11.578Z,63.17
2022-10-26T22:27:40.585Z,60.53
2022-10-26T22:30:10.362Z,60.65
2022-10-26T22:32:39.419Z,61.63
2022-10-26T22:35:28.621Z,61.80
2022-10-26T22:37:57.942Z,64.03
2022-10-26T22:40:27.254Z,60.15
2022-10-26T22:42:56.246Z,65.38
2022-10-26T22:45:25.422Z,64.85
2022-10-26T22:47:54.774Z,69.43
2022-10-26T22:50:24.038Z,67.35
2022-10-26T22:52:53.632Z,67.65
2022-10-26T22:55:22.752Z,65.70
2022-10-26T22:57:52.062Z,65.65
2022-10-26T23:00:21.694Z,66.88
2022-10-26T23:02:51.238Z,66.60
2022-10-26T23:05:20.083Z,70.15
2022-10-26T23:07:49.531Z,70.60
2022-10-26T23:10:19.190Z,75.47
2022-10-26T23:12:51.477Z,75.07
2022-10-26T23:15:20.488Z,76.80
2022-10-26T23:17:49.983Z,78.38
2022-10-26T23:20:19.602Z,78.40
2022-10-26T23:22:48.842Z,77.25
2022-10-26T23:25:18.523Z,80.18
2022-10-26T23:27:47.458Z,75.45
2022-10-26T23:30:16.609Z,80.22
2022-10-26T23:32:45.777Z,72.30
2022-10-26T23:35:14.780Z,80.78
2022-10-26T23:37:44.322Z,87.15
2022-10-26T23:40:13.632Z,91.78
2022-10-26T23:42:43.366Z,97.90
2022-10-26T23:45:12.623Z,99.35
2022-10-26T23:47:41.918Z,99.65
2022-10-26T23:50:11.303Z,103.65
2022-10-26T23:52:40.140Z,108.53
2022-10-26T23:55:10.174Z,110.57
2022-10-26T23:57:41.155Z,115.25
